This is the latest recevied weather packets stored in our database for station/object OK1VOF-13. If no packets are shown the sender has not sent any weather packets the latest 10 day(s).
| Time | Temp. | Humidity | Pressure | Rain* | Wind** | Luminosity | Snow |
|---|---|---|---|---|---|---|---|
| 1778340708 | 21.11° C | 31% | 1021.1 hPa | 114.3 mm | - | - | - |
| 1778340406 | 21.67° C | 31% | 1021 hPa | 114.3 mm | - | - | - |
| 1778340104 | 21.67° C | 30% | 1021 hPa | 114.3 mm | - | - | - |
| 1778339802 | 22.22° C | 29% | 1021 hPa | 114.3 mm | - | - | - |
| 1778339500 | 23.33° C | 29% | 1021 hPa | 114.3 mm | - | - | - |
| 1778339199 | 23.89° C | 28% | 1021 hPa | 114.3 mm | - | - | - |
| 1778338897 | 24.44° C | 27% | 1021 hPa | 141.99 mm | - | - | - |
| 1778338592 | 25.56° C | 27% | 1021 hPa | 139.7 mm | - | - | - |
| 1778338289 | 26.11° C | 26% | 1021.1 hPa | 151.13 mm | - | - | - |
| 1778337987 | 26.67° C | 24% | 1021 hPa | 151.13 mm | - | - | - |
| 1778337668 | 26.67° C | 26% | 1021.1 hPa | 164.59 mm | - | - | - |
| 1778337326 | 26.67° C | 26% | 1021 hPa | 64.01 mm | - | - | - |
| 1778337019 | 26.11° C | 26% | 1021.1 hPa | 64.01 mm | - | - | - |
| 1778336717 | 25.56° C | 26% | 1021 hPa | 64.01 mm | - | - | - |
| 1778336415 | 24.44° C | 30% | 1021.1 hPa | 64.01 mm | - | - | - |
| 1778336113 | 22.22° C | 33% | 1021.1 hPa | 64.01 mm | - | - | - |
| 1778335811 | 21.11° C | 34% | 1021.1 hPa | 64.01 mm | - | - | - |
| 1778335509 | 20° C | 35% | 1021.2 hPa | 70.61 mm | - | - | - |
| 1778335207 | 20° C | 35% | 1021.2 hPa | 45.72 mm | - | - | - |
| 1778334906 | 18.89° C | 36% | 1021.2 hPa | 35.31 mm | - | - | - |
| 1778334605 | 18.89° C | 38% | 1021.3 hPa | 23.62 mm | - | - | - |
| 1778334600 | 18.89° C | 38% | 1021.3 hPa | 23.62 mm | - | - | - |
| 1778334105 | 18.33° C | 39% | 1021.4 hPa | 23.62 mm | - | - | - |
| 1778333702 | 18.33° C | 39% | 1021.4 hPa | 10.16 mm | - | - | - |
| 1778333412 | 17.78° C | 39% | 1021.5 hPa | 10.16 mm | - | - | - |
* Rain latest hour (hover to see other rain measurements)
** Current wind speed in m/s (hover to see current wind gust speed)